createdAt,value
2018-03-15T00:01:20.790Z,45.13
2018-03-15T00:03:49.463Z,49.93
2018-03-15T00:06:19.952Z,36.23
2018-03-15T00:08:50.745Z,43.70
2018-03-15T00:11:19.014Z,46.03
2018-03-15T00:13:47.262Z,38.20
2018-03-15T00:16:15.884Z,41.43
2018-03-15T00:18:44.145Z,40.63
2018-03-15T00:21:12.487Z,42.60
2018-03-15T00:23:40.945Z,40.57
2018-03-15T00:26:09.211Z,36.20
2018-03-15T00:28:37.477Z,27.53
2018-03-15T00:31:05.781Z,46.47
2018-03-15T00:33:38.589Z,41.97
2018-03-15T00:36:07.516Z,38.57
2018-03-15T00:38:35.775Z,34.53
2018-03-15T00:41:04.022Z,43.93
2018-03-15T00:43:34.195Z,34.83
2018-03-15T00:46:02.532Z,41.47
2018-03-15T00:48:30.809Z,39.30
2018-03-15T00:50:59.220Z,43.77
2018-03-15T00:53:27.484Z,36.30
2018-03-15T00:55:55.878Z,35.97
2018-03-15T00:58:25.737Z,44.33
2018-03-15T01:00:54.009Z,46.37
2018-03-15T01:03:23.036Z,38.23
2018-03-15T01:05:51.316Z,38.00
2018-03-15T01:08:20.322Z,45.50
2018-03-15T01:10:51.226Z,36.63
2018-03-15T01:13:19.866Z,33.30
2018-03-15T01:15:48.940Z,43.00
2018-03-15T01:18:17.198Z,40.07
2018-03-15T01:20:45.726Z,29.77
2018-03-15T01:23:14.758Z,40.73
2018-03-15T01:25:43.041Z,36.13
2018-03-15T01:28:11.569Z,41.80
2018-03-15T01:30:39.844Z,41.37
2018-03-15T01:33:11.170Z,37.23
2018-03-15T01:35:39.880Z,42.30
2018-03-15T01:38:08.919Z,32.37
2018-03-15T01:40:37.223Z,32.60
2018-03-15T01:43:05.532Z,34.77
2018-03-15T01:45:35.730Z,41.53
2018-03-15T01:48:04.212Z,42.20
2018-03-15T01:50:32.693Z,38.63
2018-03-15T01:53:00.959Z,42.07
2018-03-15T01:55:29.217Z,40.13
2018-03-15T01:57:57.736Z,38.47
2018-03-15T02:00:28.624Z,41.30
2018-03-15T02:02:56.924Z,26.37
2018-03-15T02:05:25.616Z,36.60
2018-03-15T02:07:53.879Z,39.63
2018-03-15T02:10:22.134Z,35.37
2018-03-15T02:12:51.227Z,24.37
2018-03-15T02:15:20.269Z,39.07
2018-03-15T02:17:48.540Z,35.83
2018-03-15T02:20:16.858Z,31.63
2018-03-15T02:22:46.592Z,39.50
2018-03-15T02:25:15.383Z,35.03
2018-03-15T02:27:43.925Z,32.50
2018-03-15T02:30:12.188Z,41.37
2018-03-15T02:32:40.455Z,37.30
2018-03-15T02:35:09.055Z,37.17
2018-03-15T02:37:38.089Z,44.03
2018-03-15T02:40:07.106Z,53.47
2018-03-15T02:42:35.622Z,43.97
2018-03-15T02:45:03.881Z,50.37
2018-03-15T02:47:35.798Z,43.93
2018-03-15T02:50:05.978Z,50.33
2018-03-15T02:52:34.259Z,45.93
2018-03-15T02:55:02.522Z,54.23
2018-03-15T02:57:30.914Z,52.63
2018-03-15T02:59:59.172Z,44.27
2018-03-15T03:02:28.943Z,29.80
2018-03-15T03:04:57.377Z,37.70
2018-03-15T03:07:25.631Z,40.40
2018-03-15T03:09:53.916Z,41.77
2018-03-15T03:12:22.398Z,49.63
2018-03-15T03:14:52.362Z,51.03
2018-03-15T03:17:21.382Z,49.67
2018-03-15T03:19:49.723Z,31.80
2018-03-15T03:22:18.761Z,50.83
2018-03-15T03:24:47.779Z,35.40
2018-03-15T03:27:17.705Z,50.30
2018-03-15T03:29:45.975Z,54.73
2018-03-15T03:32:14.238Z,43.83
2018-03-15T03:34:42.525Z,40.73
2018-03-15T03:37:10.807Z,34.60
2018-03-15T03:39:39.539Z,46.50
2018-03-15T03:42:07.842Z,46.37
2018-03-15T03:44:36.114Z,40.00
2018-03-15T03:47:04.369Z,52.27
2018-03-15T03:49:33.166Z,41.10
2018-03-15T03:52:04.509Z,55.87
2018-03-15T03:54:32.770Z,58.07
2018-03-15T03:57:01.559Z,59.20
2018-03-15T03:59:29.819Z,43.60
2018-03-15T04:01:59.042Z,57.80
2018-03-15T04:04:27.876Z,44.47
2018-03-15T04:06:56.144Z,42.60
2018-03-15T04:09:24.410Z,20.27
2018-03-15T04:11:52.712Z,19.17
2018-03-15T04:14:20.976Z,23.77
2018-03-15T04:16:50.040Z,55.67
2018-03-15T04:19:19.684Z,45.43
2018-03-15T04:21:47.968Z,61.07
2018-03-15T04:24:16.251Z,21.57
2018-03-15T04:26:44.710Z,52.57
2018-03-15T04:29:13.457Z,31.57
2018-03-15T04:31:41.746Z,42.60
2018-03-15T04:34:10.048Z,61.93
2018-03-15T04:36:38.320Z,57.07
2018-03-15T04:39:06.588Z,59.20
2018-03-15T04:41:36.220Z,59.67
2018-03-15T04:44:04.504Z,8.03
2018-03-15T04:46:32.748Z,45.47
2018-03-15T04:49:01.061Z,30.33
2018-03-15T04:51:30.567Z,24.60
2018-03-15T04:54:00.427Z,39.90
2018-03-15T04:56:28.897Z,62.33
2018-03-15T04:58:57.924Z,48.93
2018-03-15T05:01:26.225Z,54.73
2018-03-15T05:03:54.578Z,54.63
2018-03-15T05:06:23.645Z,69.23
2018-03-15T05:08:51.936Z,61.43
2018-03-15T05:11:20.588Z,52.80
2018-03-15T05:13:49.622Z,54.50
2018-03-15T05:16:19.495Z,46.13
2018-03-15T05:18:49.071Z,54.20
2018-03-15T05:21:17.339Z,41.77
2018-03-15T05:23:45.589Z,34.33
2018-03-15T05:26:14.017Z,65.30
2018-03-15T05:28:43.756Z,46.00
2018-03-15T05:31:12.045Z,49.80
2018-03-15T05:33:40.334Z,40.20
2018-03-15T05:36:08.607Z,49.90
2018-03-15T05:38:36.873Z,47.13
2018-03-15T05:41:05.965Z,41.70
2018-03-15T05:43:34.768Z,40.97
2018-03-15T05:46:03.047Z,50.03
2018-03-15T05:48:31.817Z,51.77
2018-03-15T05:51:00.092Z,41.83
2018-03-15T05:53:30.874Z,48.37
2018-03-15T05:56:00.890Z,49.63
2018-03-15T05:58:29.147Z,35.87
2018-03-15T06:00:58.009Z,45.07
2018-03-15T06:03:26.560Z,38.37
2018-03-15T06:05:55.582Z,41.30
2018-03-15T06:08:24.312Z,32.47
2018-03-15T06:10:52.681Z,45.17
2018-03-15T06:13:20.944Z,39.53
2018-03-15T06:15:49.220Z,43.50
2018-03-15T06:18:17.756Z,45.33
2018-03-15T06:20:47.539Z,25.10
2018-03-15T06:23:15.917Z,40.40
2018-03-15T06:25:44.441Z,29.83
2018-03-15T06:28:13.497Z,36.30
2018-03-15T06:30:44.029Z,33.70
2018-03-15T06:33:13.235Z,34.70
2018-03-15T06:35:41.507Z,39.20
2018-03-15T06:38:09.866Z,38.03
2018-03-15T06:40:38.370Z,38.40
2018-03-15T06:43:06.638Z,41.03
2018-03-15T06:45:35.893Z,33.53
2018-03-15T06:48:04.920Z,31.43
2018-03-15T06:50:33.265Z,32.57
2018-03-15T06:53:01.601Z,38.80
2018-03-15T06:55:31.289Z,37.83
2018-03-15T06:58:01.904Z,28.63
2018-03-15T07:00:30.169Z,23.70
2018-03-15T07:02:58.694Z,26.43
2018-03-15T07:05:26.953Z,23.50
2018-03-15T07:07:56.038Z,25.83
2018-03-15T07:10:25.654Z,26.73
2018-03-15T07:12:53.940Z,27.40
2018-03-15T07:15:22.250Z,23.97
2018-03-15T07:17:50.865Z,27.00
2018-03-15T07:20:19.152Z,23.47
2018-03-15T07:22:50.152Z,21.93
2018-03-15T07:25:19.272Z,24.60
2018-03-15T07:27:47.550Z,21.30
2018-03-15T07:30:15.813Z,23.20
2018-03-15T07:32:44.462Z,25.73
2018-03-15T07:35:13.634Z,23.77
2018-03-15T07:37:41.945Z,28.53
2018-03-15T07:40:10.242Z,29.20
2018-03-15T07:42:39.281Z,24.00
2018-03-15T07:45:07.562Z,19.03
2018-03-15T07:47:36.064Z,23.87
2018-03-15T07:50:04.438Z,28.60
2018-03-15T07:52:33.468Z,23.80
2018-03-15T07:55:01.901Z,27.60
2018-03-15T07:57:34.233Z,19.13
2018-03-15T08:00:02.504Z,22.73
2018-03-15T08:02:31.042Z,26.53
2018-03-15T08:04:59.361Z,24.40
2018-03-15T08:07:28.425Z,19.83
2018-03-15T08:09:58.430Z,25.27
2018-03-15T08:12:26.894Z,22.07
2018-03-15T08:14:55.159Z,20.90
2018-03-15T08:17:23.481Z,19.90
2018-03-15T08:19:52.529Z,23.80
2018-03-15T08:22:21.531Z,28.97
2018-03-15T08:24:50.132Z,24.10
2018-03-15T08:27:18.395Z,23.77
2018-03-15T08:29:46.668Z,24.17
2018-03-15T08:32:15.151Z,22.03
2018-03-15T08:34:43.432Z,23.00
2018-03-15T08:37:14.262Z,23.93
2018-03-15T08:39:43.231Z,18.77
2018-03-15T08:42:12.240Z,23.43
2018-03-15T08:44:40.566Z,22.13
2018-03-15T08:47:09.621Z,20.70
2018-03-15T08:49:37.893Z,19.63
2018-03-15T08:52:06.195Z,22.50
2018-03-15T08:54:36.950Z,30.30
2018-03-15T08:57:06.029Z,22.77
2018-03-15T08:59:36.337Z,23.87
2018-03-15T09:02:05.380Z,21.60
2018-03-15T09:04:33.644Z,21.80
2018-03-15T09:07:03.008Z,22.43
2018-03-15T09:09:31.640Z,21.30
2018-03-15T09:11:59.959Z,26.77
2018-03-15T09:14:29.016Z,21.33
2018-03-15T09:16:57.363Z,21.57
2018-03-15T09:19:25.660Z,17.67
2018-03-15T09:21:53.924Z,21.03
2018-03-15T09:24:22.995Z,18.33
2018-03-15T09:26:55.027Z,18.43
2018-03-15T09:29:23.594Z,19.80
2018-03-15T09:31:52.357Z,15.67
2018-03-15T09:34:21.483Z,22.83
2018-03-15T09:36:49.716Z,16.63
2018-03-15T09:39:20.597Z,18.80
2018-03-15T09:41:48.863Z,17.73
2018-03-15T09:44:17.138Z,20.00
2018-03-15T09:46:45.553Z,17.83
2018-03-15T09:49:13.830Z,13.67
2018-03-15T09:51:42.414Z,14.47
2018-03-15T09:54:11.212Z,17.37
2018-03-15T09:56:44.831Z,15.90
2018-03-15T09:59:13.389Z,13.53
2018-03-15T10:01:44.292Z,15.10
2018-03-15T10:04:14.323Z,14.80
2018-03-15T10:06:42.611Z,13.43
2018-03-15T10:09:10.925Z,19.43
2018-03-15T10:11:40.958Z,13.20
2018-03-15T10:14:10.002Z,14.20
2018-03-15T10:16:42.922Z,13.77
2018-03-15T10:19:11.230Z,15.90
2018-03-15T10:21:39.554Z,13.60
2018-03-15T10:24:07.934Z,15.13
2018-03-15T10:26:36.202Z,14.33
2018-03-15T10:29:04.614Z,14.13
2018-03-15T10:31:34.180Z,10.90
2018-03-15T10:34:02.482Z,21.80
2018-03-15T10:36:30.785Z,12.67
2018-03-15T10:38:59.340Z,13.93
2018-03-15T10:41:29.602Z,14.07
2018-03-15T10:43:57.894Z,17.20
2018-03-15T10:46:26.219Z,13.97
2018-03-15T10:48:54.581Z,16.17
2018-03-15T10:51:22.895Z,11.00
2018-03-15T10:53:53.587Z,12.93
2018-03-15T10:56:21.886Z,9.67
2018-03-15T10:58:50.157Z,12.60
2018-03-15T11:01:22.234Z,10.87
2018-03-15T11:03:51.101Z,9.73
2018-03-15T11:06:26.012Z,11.20
2018-03-15T11:08:58.197Z,10.30
2018-03-15T11:11:26.674Z,10.57
2018-03-15T11:13:54.974Z,8.87
2018-03-15T11:16:27.629Z,9.30
2018-03-15T11:18:55.907Z,10.30
2018-03-15T11:21:24.273Z,9.37
2018-03-15T11:23:52.862Z,12.10
2018-03-15T11:26:21.058Z,10.20
2018-03-15T11:28:49.910Z,10.40
2018-03-15T11:31:18.998Z,11.17
2018-03-15T11:33:47.338Z,13.13
2018-03-15T11:36:17.586Z,12.73
2018-03-15T11:38:46.651Z,9.70
2018-03-15T11:41:17.962Z,11.03
2018-03-15T11:43:47.467Z,9.33
2018-03-15T11:46:15.841Z,8.93
2018-03-15T11:48:45.001Z,13.27
2018-03-15T11:51:13.389Z,8.37
2018-03-15T11:53:43.414Z,5.33
2018-03-15T11:56:11.753Z,9.37
2018-03-15T11:58:40.895Z,10.40
2018-03-15T12:01:09.229Z,7.43
2018-03-15T12:03:38.855Z,13.60
2018-03-15T12:06:09.767Z,8.73
2018-03-15T12:08:38.939Z,8.20
2018-03-15T12:11:07.258Z,9.60
2018-03-15T12:13:36.118Z,8.40
2018-03-15T12:16:04.663Z,8.13
2018-03-15T12:18:33.900Z,8.30
2018-03-15T12:21:02.212Z,10.30
2018-03-15T12:23:31.846Z,8.40
2018-03-15T12:26:00.253Z,6.70
2018-03-15T12:28:28.787Z,13.87
2018-03-15T12:30:57.942Z,9.00
2018-03-15T12:33:27.785Z,14.03
2018-03-15T12:35:56.944Z,8.77
2018-03-15T12:38:25.342Z,8.63
2018-03-15T12:40:53.602Z,6.77
2018-03-15T12:43:22.508Z,10.97
2018-03-15T12:45:50.828Z,6.70
2018-03-15T12:48:19.120Z,9.83
2018-03-15T12:50:47.543Z,9.47
2018-03-15T12:53:15.847Z,10.50
2018-03-15T12:55:45.679Z,7.63
2018-03-15T12:58:15.131Z,12.33
2018-03-15T13:00:44.188Z,7.00
2018-03-15T13:03:12.456Z,7.27
2018-03-15T13:05:40.883Z,8.00
2018-03-15T13:08:13.415Z,5.87
2018-03-15T13:10:41.719Z,8.10
2018-03-15T13:13:10.119Z,6.10
2018-03-15T13:15:38.414Z,10.43
2018-03-15T13:18:07.478Z,6.47
2018-03-15T13:20:35.765Z,5.43
2018-03-15T13:23:04.855Z,6.97
2018-03-15T13:25:33.342Z,8.57
2018-03-15T13:28:01.618Z,10.10
2018-03-15T13:30:31.402Z,17.33
2018-03-15T13:33:00.220Z,6.47
2018-03-15T13:35:28.492Z,5.60
2018-03-15T13:37:57.902Z,8.73
2018-03-15T13:40:26.262Z,11.33
2018-03-15T13:42:58.451Z,10.13
2018-03-15T13:45:27.754Z,8.37
2018-03-15T13:47:56.066Z,6.83
2018-03-15T13:50:24.331Z,6.40
2018-03-15T13:52:53.626Z,8.10
2018-03-15T13:55:22.670Z,8.47
2018-03-15T13:57:52.589Z,10.30
2018-03-15T14:00:22.114Z,10.87
2018-03-15T14:02:50.377Z,9.60
2018-03-15T14:05:18.686Z,6.97
2018-03-15T14:07:47.870Z,7.63
2018-03-15T14:10:16.495Z,6.00
2018-03-15T14:12:45.516Z,9.30
2018-03-15T14:15:13.877Z,5.80
2018-03-15T14:17:42.809Z,7.40
2018-03-15T14:20:11.131Z,10.10
2018-03-15T14:22:40.698Z,7.03
2018-03-15T14:25:09.016Z,7.90
2018-03-15T14:27:37.307Z,5.80
2018-03-15T14:30:05.941Z,6.60
2018-03-15T14:32:34.247Z,12.27
2018-03-15T14:35:05.634Z,7.87
2018-03-15T14:37:34.132Z,5.97
2018-03-15T14:40:02.496Z,5.97
2018-03-15T14:42:30.754Z,5.83
2018-03-15T14:45:00.076Z,5.20
2018-03-15T14:47:28.519Z,5.53
2018-03-15T14:49:57.567Z,11.17
2018-03-15T14:52:26.079Z,10.60
2018-03-15T14:54:54.366Z,10.47
2018-03-15T14:57:22.875Z,9.43
2018-03-15T14:59:52.000Z,10.77
2018-03-15T15:02:21.028Z,12.63
2018-03-15T15:04:49.340Z,13.03
2018-03-15T15:07:17.787Z,12.50
2018-03-15T15:09:47.273Z,13.70
2018-03-15T15:12:16.391Z,13.67
2018-03-15T15:14:45.186Z,10.97
2018-03-15T15:17:13.602Z,12.70
2018-03-15T15:19:41.902Z,12.37
2018-03-15T15:22:10.216Z,12.53
2018-03-15T15:24:40.045Z,11.13
2018-03-15T15:27:09.796Z,11.30
2018-03-15T15:29:38.155Z,10.53
2018-03-15T15:32:06.461Z,8.50
2018-03-15T15:34:34.774Z,11.43
2018-03-15T15:37:04.184Z,10.90
2018-03-15T15:39:33.555Z,10.53
2018-03-15T15:42:02.659Z,9.90
2018-03-15T15:44:31.770Z,10.50
2018-03-15T15:47:00.068Z,11.83
2018-03-15T15:49:28.366Z,10.60
2018-03-15T15:51:58.224Z,11.23
2018-03-15T15:54:27.300Z,12.60
2018-03-15T15:56:56.891Z,12.60
2018-03-15T15:59:26.430Z,10.97
2018-03-15T16:01:55.997Z,12.47
2018-03-15T16:04:24.445Z,13.07
2018-03-15T16:06:53.095Z,15.87
2018-03-15T16:09:21.399Z,12.40
2018-03-15T16:11:49.668Z,13.00
2018-03-15T16:14:19.731Z,19.93
2018-03-15T16:16:50.280Z,21.70
2018-03-15T16:19:18.732Z,17.33
2018-03-15T16:21:48.221Z,13.53
2018-03-15T16:24:17.344Z,16.50
2018-03-15T16:26:46.022Z,13.27
2018-03-15T16:29:14.517Z,16.90
2018-03-15T16:31:42.848Z,14.10
2018-03-15T16:34:11.119Z,16.43
2018-03-15T16:36:40.160Z,13.80
2018-03-15T16:39:08.497Z,12.80
2018-03-15T16:41:37.591Z,13.97
2018-03-15T16:44:05.901Z,16.87
2018-03-15T16:46:34.245Z,16.47
2018-03-15T16:49:02.505Z,14.43
2018-03-15T16:51:31.883Z,16.13
2018-03-15T16:54:00.235Z,16.53
2018-03-15T16:56:28.494Z,12.87
2018-03-15T16:58:57.017Z,20.77
2018-03-15T17:01:25.294Z,17.77
2018-03-15T17:03:53.897Z,17.70
2018-03-15T17:06:23.176Z,16.07
2018-03-15T17:08:51.445Z,14.63
2018-03-15T17:11:19.867Z,14.73
2018-03-15T17:13:48.304Z,17.00
2018-03-15T17:16:19.433Z,12.07
2018-03-15T17:18:48.438Z,17.50
2018-03-15T17:21:16.746Z,15.40
2018-03-15T17:23:45.782Z,18.63
2018-03-15T17:26:14.045Z,17.30
2018-03-15T17:28:42.591Z,18.33
2018-03-15T17:31:11.748Z,18.80
2018-03-15T17:33:40.012Z,17.83
2018-03-15T17:36:08.639Z,15.50
2018-03-15T17:38:36.941Z,16.40
2018-03-15T17:41:13.580Z,16.47
2018-03-15T17:43:41.844Z,14.17
2018-03-15T17:46:10.111Z,15.00
2018-03-15T17:48:38.795Z,11.40
2018-03-15T17:51:07.056Z,18.23
2018-03-15T17:53:35.417Z,15.27
2018-03-15T17:56:04.113Z,20.10
2018-03-15T17:58:33.274Z,18.37
2018-03-15T18:01:02.309Z,15.27
2018-03-15T18:03:30.642Z,17.37
2018-03-15T18:06:01.482Z,16.40
2018-03-15T18:08:29.737Z,18.33
2018-03-15T18:10:58.208Z,16.60
2018-03-15T18:13:26.493Z,19.77
2018-03-15T18:15:54.820Z,17.00
2018-03-15T18:18:23.654Z,15.17
2018-03-15T18:20:51.954Z,19.83
2018-03-15T18:23:20.208Z,17.17
2018-03-15T18:25:48.707Z,18.80
2018-03-15T18:28:17.001Z,16.97
2018-03-15T18:30:48.699Z,15.83
2018-03-15T18:33:17.329Z,19.73
2018-03-15T18:35:46.830Z,15.40
2018-03-15T18:38:15.084Z,17.33
2018-03-15T18:40:43.562Z,15.63
2018-03-15T18:43:13.469Z,15.17
2018-03-15T18:45:41.740Z,17.30
2018-03-15T18:48:10.242Z,15.83
2018-03-15T18:50:38.519Z,19.27
2018-03-15T18:53:06.812Z,20.37
2018-03-15T18:55:37.833Z,17.87
2018-03-15T18:58:06.195Z,17.70
2018-03-15T19:00:34.458Z,19.30
2018-03-15T19:03:04.194Z,12.73
2018-03-15T19:05:32.457Z,17.77
2018-03-15T19:08:03.052Z,18.23
2018-03-15T19:10:32.120Z,15.87
2018-03-15T19:13:00.411Z,16.17
2018-03-15T19:15:29.451Z,14.80
2018-03-15T19:17:57.752Z,17.17
2018-03-15T19:20:27.974Z,16.97
2018-03-15T19:22:56.283Z,17.57
2018-03-15T19:25:25.664Z,14.60
2018-03-15T19:27:53.922Z,16.47
2018-03-15T19:30:23.064Z,16.67
2018-03-15T19:32:52.915Z,16.73
2018-03-15T19:35:21.175Z,21.97
2018-03-15T19:37:49.539Z,21.93
2018-03-15T19:40:18.768Z,19.07
2018-03-15T19:42:47.027Z,18.03
2018-03-15T19:45:20.526Z,18.93
2018-03-15T19:47:48.883Z,18.03
2018-03-15T19:50:17.160Z,18.60
2018-03-15T19:52:45.465Z,18.80
2018-03-15T19:55:17.526Z,18.70
2018-03-15T19:57:45.807Z,17.07
2018-03-15T20:00:14.281Z,24.63
2018-03-15T20:02:42.553Z,23.37
2018-03-15T20:05:10.826Z,22.67
2018-03-15T20:07:39.160Z,19.60
2018-03-15T20:10:08.515Z,20.00
2018-03-15T20:12:36.838Z,19.83
2018-03-15T20:15:06.213Z,20.90
2018-03-15T20:17:34.530Z,16.27
2018-03-15T20:20:03.597Z,22.57
2018-03-15T20:22:38.458Z,23.10
2018-03-15T20:25:07.481Z,18.30
2018-03-15T20:27:41.458Z,22.00
2018-03-15T20:30:10.522Z,24.10
2018-03-15T20:32:46.562Z,19.23
2018-03-15T20:35:14.825Z,19.20
2018-03-15T20:37:46.909Z,27.93
2018-03-15T20:40:20.905Z,24.07
2018-03-15T20:42:50.026Z,26.53
2018-03-15T20:45:23.891Z,21.37
2018-03-15T20:47:57.950Z,19.13
2018-03-15T20:50:26.224Z,23.93
2018-03-15T20:52:57.185Z,22.13
2018-03-15T20:55:25.488Z,20.77
2018-03-15T20:57:54.525Z,22.73
2018-03-15T21:00:22.801Z,22.00
2018-03-15T21:02:52.217Z,22.40
2018-03-15T21:05:20.551Z,26.50
2018-03-15T21:07:48.825Z,22.70
2018-03-15T21:10:17.124Z,23.90
2018-03-15T21:12:45.384Z,23.30
2018-03-15T21:15:13.712Z,19.67
2018-03-15T21:17:42.629Z,28.03
2018-03-15T21:20:10.907Z,27.17
2018-03-15T21:22:39.429Z,39.33
2018-03-15T21:25:07.824Z,27.13
2018-03-15T21:27:36.086Z,23.50
2018-03-15T21:30:05.974Z,28.23
2018-03-15T21:32:34.262Z,31.73
2018-03-15T21:35:03.294Z,30.40
2018-03-15T21:37:31.549Z,20.27
2018-03-15T21:39:59.862Z,36.17
2018-03-15T21:42:30.750Z,31.10
2018-03-15T21:44:59.013Z,30.83
2018-03-15T21:47:27.302Z,33.10
2018-03-15T21:49:55.594Z,28.13
2018-03-15T21:52:24.510Z,30.47
2018-03-15T21:54:55.025Z,28.77
2018-03-15T21:57:24.800Z,34.17
2018-03-15T21:59:53.072Z,30.00
2018-03-15T22:02:21.386Z,37.70
2018-03-15T22:04:49.660Z,32.97
2018-03-15T22:07:22.536Z,37.40
2018-03-15T22:09:50.791Z,31.67
2018-03-15T22:12:19.071Z,31.23
2018-03-15T22:14:47.600Z,28.17
2018-03-15T22:17:16.388Z,34.00
2018-03-15T22:19:46.241Z,27.20
2018-03-15T22:22:14.556Z,33.30
2018-03-15T22:24:43.415Z,34.40
2018-03-15T22:27:11.749Z,28.53
2018-03-15T22:29:40.200Z,35.60
2018-03-15T22:32:11.534Z,32.63
2018-03-15T22:34:39.802Z,31.40
2018-03-15T22:37:08.225Z,34.70
2018-03-15T22:39:36.499Z,34.47
2018-03-15T22:42:04.813Z,28.13
2018-03-15T22:44:33.340Z,28.70
2018-03-15T22:47:01.595Z,32.87
2018-03-15T22:49:29.854Z,37.60
2018-03-15T22:51:58.369Z,32.03
2018-03-15T22:54:26.632Z,28.10
2018-03-15T22:56:54.927Z,33.53
2018-03-15T22:59:23.329Z,33.10
2018-03-15T23:01:51.599Z,35.67
2018-03-15T23:04:19.879Z,36.67
2018-03-15T23:06:48.187Z,36.97
2018-03-15T23:09:16.592Z,37.37
2018-03-15T23:11:44.855Z,38.70
2018-03-15T23:14:14.733Z,31.90
2018-03-15T23:16:42.991Z,36.47
2018-03-15T23:19:12.014Z,42.63
2018-03-15T23:21:41.503Z,44.60
2018-03-15T23:24:09.814Z,40.57
2018-03-15T23:26:39.882Z,45.10
2018-03-15T23:29:08.303Z,39.80
2018-03-15T23:31:36.598Z,39.67
2018-03-15T23:34:04.942Z,47.87
2018-03-15T23:36:34.226Z,45.20
2018-03-15T23:39:02.511Z,45.13
2018-03-15T23:41:30.767Z,44.77
2018-03-15T23:43:59.462Z,36.57
2018-03-15T23:46:28.025Z,36.17
2018-03-15T23:48:56.298Z,42.93
2018-03-15T23:51:25.611Z,41.77
2018-03-15T23:53:53.856Z,39.63
2018-03-15T23:56:22.115Z,33.00
2018-03-15T23:58:51.950Z,43.77
